createdAt,value
2018-04-11T00:00:07.397Z,6.50
2018-04-11T00:02:34.879Z,7.10
2018-04-11T00:05:02.374Z,8.37
2018-04-11T00:07:29.856Z,7.93
2018-04-11T00:09:57.343Z,8.32
2018-04-11T00:12:24.822Z,8.80
2018-04-11T00:14:52.309Z,12.40
2018-04-11T00:17:19.804Z,10.90
2018-04-11T00:19:47.291Z,8.93
2018-04-11T00:22:14.773Z,10.45
2018-04-11T00:24:42.249Z,9.40
2018-04-11T00:27:09.800Z,10.25
2018-04-11T00:29:37.267Z,8.60
2018-04-11T00:32:04.752Z,11.50
2018-04-11T00:34:32.260Z,13.63
2018-04-11T00:36:59.749Z,8.77
2018-04-11T00:39:27.221Z,12.77
2018-04-11T00:41:54.844Z,13.60
2018-04-11T00:44:22.341Z,9.90
2018-04-11T00:46:49.821Z,12.95
2018-04-11T00:49:17.821Z,10.23
2018-04-11T00:51:45.310Z,10.73
2018-04-11T00:54:12.815Z,13.02
2018-04-11T00:56:40.324Z,9.60
2018-04-11T00:59:07.806Z,11.32
2018-04-11T01:01:35.316Z,9.20
2018-04-11T01:04:02.813Z,9.13
2018-04-11T01:06:30.357Z,17.27
2018-04-11T01:08:57.851Z,10.67
2018-04-11T01:11:25.446Z,14.10
2018-04-11T01:13:53.070Z,14.30
2018-04-11T01:16:20.615Z,14.25
2018-04-11T01:18:48.097Z,12.23
2018-04-11T01:21:15.607Z,12.63
2018-04-11T01:23:43.110Z,13.18
2018-04-11T01:26:10.568Z,13.90
2018-04-11T01:28:38.075Z,12.30
2018-04-11T01:31:05.585Z,9.30
2018-04-11T01:33:33.058Z,15.25
2018-04-11T01:36:00.590Z,10.38
2018-04-11T01:38:28.108Z,11.35
2018-04-11T01:40:55.571Z,14.53
2018-04-11T01:43:23.045Z,13.23
2018-04-11T01:45:50.537Z,14.70
2018-04-11T01:48:18.031Z,12.02
2018-04-11T01:50:46.349Z,14.17
2018-04-11T01:53:13.834Z,13.00
2018-04-11T01:55:41.289Z,14.20
2018-04-11T01:58:08.812Z,12.65
2018-04-11T02:00:36.309Z,9.33
2018-04-11T02:03:03.818Z,13.80
2018-04-11T02:05:31.293Z,10.13
2018-04-11T02:07:58.785Z,9.57
2018-04-11T02:10:26.273Z,11.23
2018-04-11T02:12:53.747Z,9.50
2018-04-11T02:15:21.316Z,11.40
2018-04-11T02:17:48.825Z,12.47
2018-04-11T02:20:16.339Z,10.20
2018-04-11T02:22:43.820Z,11.50
2018-04-11T02:25:11.303Z,8.63
2018-04-11T02:27:38.830Z,11.50
2018-04-11T02:30:06.413Z,12.17
2018-04-11T02:32:33.899Z,12.40
2018-04-11T02:35:01.422Z,11.50
2018-04-11T02:37:28.927Z,12.90
2018-04-11T02:39:56.428Z,11.20
2018-04-11T02:42:23.957Z,16.17
2018-04-11T02:44:51.489Z,10.40
2018-04-11T02:47:18.955Z,13.20
2018-04-11T02:49:46.438Z,12.80
2018-04-11T02:52:13.934Z,11.07
2018-04-11T02:54:41.453Z,14.17
2018-04-11T02:57:08.967Z,9.90
2018-04-11T02:59:36.461Z,14.18
2018-04-11T03:02:03.930Z,11.60
2018-04-11T03:04:31.439Z,12.90
2018-04-11T03:06:58.945Z,12.15
2018-04-11T03:09:26.488Z,10.93
2018-04-11T03:11:53.984Z,12.83
2018-04-11T03:14:21.525Z,14.20
2018-04-11T03:16:49.011Z,11.70
2018-04-11T03:19:16.482Z,16.63
2018-04-11T03:21:44.048Z,12.68
2018-04-11T03:24:11.589Z,15.55
2018-04-11T03:26:39.097Z,16.55
2018-04-11T03:29:06.614Z,20.05
2018-04-11T03:31:34.251Z,19.48
2018-04-11T03:34:01.757Z,17.10
2018-04-11T03:36:29.275Z,19.62
2018-04-11T03:38:56.805Z,16.55
2018-04-11T03:41:24.343Z,17.33
2018-04-11T03:43:52.089Z,18.05
2018-04-11T03:46:19.681Z,20.10
2018-04-11T03:48:47.201Z,22.75
2018-04-11T03:51:14.694Z,27.80
2018-04-11T03:53:42.188Z,20.08
2018-04-11T03:56:09.725Z,23.70
2018-04-11T03:58:37.244Z,19.70
2018-04-11T04:01:04.747Z,18.83
2018-04-11T04:03:32.260Z,20.83
2018-04-11T04:05:59.739Z,15.73
2018-04-11T04:08:27.232Z,18.17
2018-04-11T04:10:54.741Z,19.87
2018-04-11T04:16:34.382Z,27.73
2018-04-11T04:19:13.834Z,20.12
2018-04-11T04:21:41.403Z,22.92
2018-04-11T04:24:08.913Z,29.95
2018-04-11T04:26:36.450Z,23.90
2018-04-11T04:29:03.945Z,29.85
2018-04-11T04:31:31.471Z,31.12
2018-04-11T04:33:59.009Z,38.20
2018-04-11T04:36:26.524Z,32.45
2018-04-11T04:38:54.068Z,38.83
2018-04-11T04:41:21.609Z,28.75
2018-04-11T04:43:49.124Z,24.63
2018-04-11T04:46:16.633Z,34.03
2018-04-11T04:48:44.165Z,29.20
2018-04-11T04:51:11.697Z,32.88
2018-04-11T04:53:39.214Z,34.15
2018-04-11T04:56:06.764Z,36.67
2018-04-11T04:58:34.273Z,31.42
2018-04-11T05:01:01.792Z,28.80
2018-04-11T05:03:29.322Z,30.55
2018-04-11T05:05:56.864Z,30.30
2018-04-11T05:08:24.357Z,28.17
2018-04-11T05:10:51.854Z,27.13
2018-04-11T05:13:19.502Z,25.35
2018-04-11T05:15:46.999Z,25.23
2018-04-11T05:18:14.496Z,27.05
2018-04-11T05:20:42.069Z,27.20
2018-04-11T05:23:09.570Z,25.77
2018-04-11T05:25:37.072Z,29.98
2018-04-11T05:28:04.572Z,24.60
2018-04-11T05:30:32.066Z,23.83
2018-04-11T05:32:59.612Z,25.77
2018-04-11T05:35:27.109Z,26.25
2018-04-11T05:37:54.580Z,22.05
2018-04-11T05:40:22.084Z,22.77
2018-04-11T05:42:49.605Z,17.50
2018-04-11T05:45:17.126Z,25.45
2018-04-11T05:47:44.686Z,22.55
2018-04-11T05:50:12.259Z,18.55
2018-04-11T05:52:39.786Z,21.55
2018-04-11T05:55:07.300Z,20.48
2018-04-11T05:57:34.823Z,22.62
2018-04-11T06:00:02.301Z,17.92
2018-04-11T06:02:29.816Z,17.50
2018-04-11T06:04:57.320Z,15.07
2018-04-11T06:07:24.801Z,20.40
2018-04-11T06:09:52.276Z,17.30
2018-04-11T06:12:19.773Z,18.17
2018-04-11T06:14:47.345Z,15.23
2018-04-11T06:17:15.005Z,17.05
2018-04-11T06:19:42.496Z,16.10
2018-04-11T06:22:09.972Z,16.53
2018-04-11T06:24:37.473Z,18.42
2018-04-11T06:27:05.120Z,20.25
2018-04-11T06:29:32.593Z,19.27
2018-04-11T06:32:00.125Z,20.12
2018-04-11T06:34:27.686Z,21.98
2018-04-11T06:36:55.210Z,22.20
2018-04-11T06:39:22.711Z,22.27
2018-04-11T06:41:50.275Z,20.37
2018-04-11T06:44:17.898Z,19.87
2018-04-11T06:46:45.377Z,16.73
2018-04-11T06:49:12.862Z,19.57
2018-04-11T06:51:40.369Z,22.67
2018-04-11T06:54:07.877Z,13.93
2018-04-11T06:56:35.382Z,40.53
2018-04-11T06:59:02.898Z,13.90
2018-04-11T07:01:30.606Z,13.30
2018-04-11T07:03:58.107Z,11.00
2018-04-11T07:06:25.594Z,11.77
2018-04-11T07:08:53.083Z,12.80
2018-04-11T07:11:20.613Z,10.90
2018-04-11T07:13:48.125Z,12.03
2018-04-11T07:16:15.620Z,10.97
2018-04-11T07:18:43.114Z,14.93
2018-04-11T07:21:10.659Z,15.37
2018-04-11T07:23:38.187Z,14.67
2018-04-11T07:26:05.689Z,9.40
2018-04-11T07:28:33.255Z,12.73
2018-04-11T07:31:00.789Z,10.50
2018-04-11T07:33:28.260Z,6.47
2018-04-11T07:35:55.733Z,7.87
2018-04-11T07:38:23.368Z,7.23
2018-04-11T07:40:50.880Z,10.33
2018-04-11T07:43:18.389Z,6.67
2018-04-11T07:45:45.896Z,7.87
2018-04-11T07:48:13.469Z,6.63
2018-04-11T07:50:40.961Z,11.13
2018-04-11T07:53:08.440Z,9.43
2018-04-11T07:55:35.933Z,5.57
2018-04-11T07:58:03.513Z,6.33
2018-04-11T08:00:30.995Z,9.03
2018-04-11T08:02:58.499Z,8.70
2018-04-11T08:05:25.973Z,7.10
2018-04-11T08:07:53.445Z,6.47
2018-04-11T08:10:20.934Z,6.47
2018-04-11T08:12:48.557Z,6.13
2018-04-11T08:15:16.036Z,7.67
2018-04-11T08:17:43.569Z,11.43
2018-04-11T08:20:11.055Z,5.67
2018-04-11T08:22:38.549Z,8.77
2018-04-11T08:25:06.104Z,5.80
2018-04-11T08:27:33.687Z,7.47
2018-04-11T08:30:01.309Z,4.87
2018-04-11T08:32:28.790Z,5.30
2018-04-11T08:34:56.275Z,5.60
2018-04-11T08:37:23.790Z,5.10
2018-04-11T08:39:51.317Z,7.20
2018-04-11T08:42:18.935Z,7.30
2018-04-11T08:44:46.444Z,8.23
2018-04-11T08:47:13.967Z,4.63
2018-04-11T08:49:41.471Z,4.83
2018-04-11T08:52:09.021Z,5.43
2018-04-11T08:54:36.510Z,9.50
2018-04-11T08:57:04.057Z,7.33
2018-04-11T08:59:31.560Z,6.60
2018-04-11T09:01:59.048Z,8.57
2018-04-11T09:04:26.535Z,4.10
2018-04-11T09:06:54.036Z,7.93
2018-04-11T09:09:21.524Z,11.90
2018-04-11T09:11:49.095Z,12.90
2018-04-11T09:14:16.607Z,25.63
2018-04-11T09:16:44.092Z,17.97
2018-04-11T09:19:11.582Z,26.50
2018-04-11T09:21:39.101Z,15.63
2018-04-11T09:24:06.603Z,24.43
2018-04-11T09:26:34.211Z,28.43
2018-04-11T09:29:01.718Z,13.17
2018-04-11T09:31:29.228Z,16.07
2018-04-11T09:33:56.708Z,22.93
2018-04-11T09:36:24.235Z,13.87
2018-04-11T09:38:51.722Z,12.20
2018-04-11T09:41:19.285Z,8.10
2018-04-11T09:43:46.791Z,11.67
2018-04-11T09:46:14.293Z,5.40
2018-04-11T09:48:41.796Z,7.97
2018-04-11T09:51:09.566Z,4.90
2018-04-11T09:53:37.049Z,5.60
2018-04-11T09:56:04.517Z,3.17
2018-04-11T09:58:32.002Z,3.77
2018-04-11T10:00:59.515Z,3.10
2018-04-11T10:03:27.006Z,4.83
2018-04-11T10:05:54.521Z,3.60
2018-04-11T10:08:22.039Z,4.13
2018-04-11T10:10:49.568Z,3.60
2018-04-11T10:13:17.202Z,3.40
2018-04-11T10:15:44.685Z,8.53
2018-04-11T10:18:12.170Z,2.53
2018-04-11T10:20:39.655Z,1.73
2018-04-11T10:23:07.143Z,3.00
2018-04-11T10:25:34.679Z,2.67
2018-04-11T10:28:02.201Z,3.63
2018-04-11T10:30:30.042Z,2.50
2018-04-11T10:32:57.520Z,5.77
2018-04-11T10:35:25.035Z,4.50
2018-04-11T10:37:52.576Z,5.00
2018-04-11T10:40:20.285Z,3.07
2018-04-11T10:42:47.794Z,2.80
2018-04-11T10:45:15.306Z,3.60
2018-04-11T10:47:42.843Z,17.83
2018-04-11T10:50:10.335Z,4.30
2018-04-11T10:52:37.844Z,3.77
2018-04-11T10:55:05.465Z,4.30
2018-04-11T10:57:32.962Z,4.43
2018-04-11T11:00:00.489Z,5.70
2018-04-11T11:02:27.981Z,3.37
2018-04-11T11:04:55.538Z,3.67
2018-04-11T11:07:23.037Z,6.90
2018-04-11T11:09:50.839Z,6.07
2018-04-11T11:12:18.309Z,2.30
2018-04-11T11:14:45.797Z,2.60
2018-04-11T11:17:13.395Z,3.33
2018-04-11T11:19:52.728Z,2.33
2018-04-11T11:22:20.204Z,2.80
2018-04-11T11:24:47.677Z,5.90
2018-04-11T11:27:15.288Z,2.53
2018-04-11T11:29:42.781Z,2.77
2018-04-11T11:32:10.335Z,2.50
2018-04-11T11:34:37.867Z,3.33
2018-04-11T11:37:05.372Z,1.67
2018-04-11T11:39:32.868Z,2.00
2018-04-11T11:42:00.461Z,2.50
2018-04-11T11:44:27.938Z,2.60
2018-04-11T11:46:55.429Z,1.80
2018-04-11T11:49:22.907Z,2.10
2018-04-11T11:51:59.265Z,3.10
2018-04-11T11:54:37.586Z,1.30
2018-04-11T11:57:09.545Z,2.80
2018-04-11T11:59:38.447Z,1.53
2018-04-11T12:02:16.122Z,2.70
2018-04-11T12:04:54.425Z,1.50
2018-04-11T12:07:22.825Z,2.43
2018-04-11T12:09:50.400Z,3.23
2018-04-11T12:12:17.881Z,1.87
2018-04-11T12:14:45.404Z,2.90
2018-04-11T12:17:12.998Z,0.97
2018-04-11T12:19:40.507Z,5.23
2018-04-11T12:22:08.001Z,1.90
2018-04-11T12:24:35.717Z,1.20
2018-04-11T12:27:03.220Z,2.07
2018-04-11T12:29:30.829Z,2.27
2018-04-11T12:31:58.306Z,2.00
2018-04-11T12:34:25.984Z,4.00
2018-04-11T12:36:53.465Z,1.83
2018-04-11T12:39:23.209Z,2.67
2018-04-11T12:41:50.783Z,3.87
2018-04-11T12:44:18.893Z,1.70
2018-04-11T12:46:46.412Z,3.60
2018-04-11T12:49:13.900Z,1.20
2018-04-11T12:51:41.385Z,1.13
2018-04-11T12:54:08.887Z,1.57
2018-04-11T12:56:36.572Z,1.30
2018-04-11T12:59:04.506Z,1.57
2018-04-11T13:01:32.370Z,1.20
2018-04-11T13:04:01.287Z,2.70
2018-04-11T13:06:29.055Z,1.93
2018-04-11T13:08:56.538Z,1.80
2018-04-11T13:11:24.079Z,1.30
2018-04-11T13:13:51.550Z,3.73
2018-04-11T13:16:19.068Z,1.70
2018-04-11T13:18:46.584Z,2.20
2018-04-11T13:21:14.083Z,1.83
2018-04-11T13:23:41.705Z,1.90
2018-04-11T13:26:09.588Z,1.60
2018-04-11T13:28:37.113Z,1.80
2018-04-11T13:31:04.580Z,1.60
2018-04-11T13:33:32.085Z,2.70
2018-04-11T13:35:59.574Z,1.57
2018-04-11T13:38:27.067Z,1.80
2018-04-11T13:40:54.678Z,2.10
2018-04-11T13:43:22.431Z,7.87
2018-04-11T13:45:49.904Z,1.70
2018-04-11T13:48:17.368Z,1.70
2018-04-11T13:50:44.877Z,1.83
2018-04-11T13:53:12.352Z,3.33
2018-04-11T13:55:39.927Z,12.20
2018-04-11T13:58:07.402Z,2.30
2018-04-11T14:00:34.936Z,3.63
2018-04-11T14:03:02.547Z,2.57
2018-04-11T14:05:30.045Z,1.30
2018-04-11T14:07:57.534Z,2.40
2018-04-11T14:10:25.167Z,1.63
2018-04-11T14:12:53.111Z,1.77
2018-04-11T14:15:20.573Z,1.77
2018-04-11T14:17:48.059Z,22.47
2018-04-11T14:20:15.635Z,4.20
2018-04-11T14:22:43.130Z,2.83
2018-04-11T14:25:10.917Z,1.47
2018-04-11T14:27:38.407Z,1.10
2018-04-11T14:30:05.918Z,4.90
2018-04-11T14:32:33.403Z,2.23
2018-04-11T14:35:00.882Z,1.80
2018-04-11T14:37:28.367Z,1.67
2018-04-11T14:39:55.903Z,1.90
2018-04-11T14:42:23.507Z,1.50
2018-04-11T14:44:51.006Z,2.93
2018-04-11T14:47:18.536Z,1.37
2018-04-11T14:49:46.026Z,1.97
2018-04-11T14:52:13.492Z,1.60
2018-04-11T14:54:40.983Z,2.53
2018-04-11T14:57:08.463Z,1.83
2018-04-11T14:59:35.951Z,2.27
2018-04-11T15:02:03.452Z,1.90
2018-04-11T15:04:31.090Z,2.77
2018-04-11T15:06:58.580Z,5.67
2018-04-11T15:09:26.099Z,2.27
2018-04-11T15:11:53.696Z,3.93
2018-04-11T15:14:21.205Z,2.23
2018-04-11T15:16:48.685Z,4.33
2018-04-11T15:19:16.225Z,8.00
2018-04-11T15:21:43.728Z,3.60
2018-04-11T15:24:11.312Z,3.77
2018-04-11T15:26:38.796Z,3.47
2018-04-11T15:29:06.290Z,3.70
2018-04-11T15:31:33.764Z,3.30
2018-04-11T15:34:01.298Z,4.67
2018-04-11T15:36:28.791Z,4.10
2018-04-11T15:38:56.305Z,4.23
2018-04-11T15:41:23.795Z,5.17
2018-04-11T15:43:51.271Z,4.77
2018-04-11T15:46:30.594Z,4.43
2018-04-11T15:48:58.063Z,4.17
2018-04-11T15:51:25.768Z,4.37
2018-04-11T15:53:53.236Z,4.43
2018-04-11T15:56:20.785Z,10.63
2018-04-11T15:58:48.220Z,6.37
2018-04-11T16:01:15.697Z,5.30
2018-04-11T16:03:43.179Z,4.13
2018-04-11T16:06:10.684Z,3.77
2018-04-11T16:08:38.186Z,3.50
2018-04-11T16:11:05.673Z,4.10
2018-04-11T16:13:33.194Z,3.47
2018-04-11T16:16:00.712Z,3.80
2018-04-11T16:18:28.195Z,5.17
2018-04-11T16:20:55.670Z,3.50
2018-04-11T16:23:23.168Z,2.80
2018-04-11T16:25:50.639Z,2.50
2018-04-11T16:28:18.129Z,2.70
2018-04-11T16:30:45.776Z,2.67
2018-04-11T16:33:13.270Z,2.50
2018-04-11T16:35:40.753Z,3.50
2018-04-11T16:38:08.223Z,2.63
2018-04-11T16:40:35.984Z,2.93
2018-04-11T16:43:03.482Z,3.23
2018-04-11T16:45:31.025Z,3.20
2018-04-11T16:47:58.508Z,25.93
2018-04-11T16:50:25.993Z,4.13
2018-04-11T16:52:53.501Z,3.60
2018-04-11T16:55:21.000Z,7.73
2018-04-11T16:57:48.520Z,4.70
2018-04-11T17:00:16.079Z,13.40
2018-04-11T17:02:43.573Z,7.37
2018-04-11T17:05:11.079Z,4.93
2018-04-11T17:07:38.596Z,7.73
2018-04-11T17:10:06.090Z,2.53
2018-04-11T17:12:39.495Z,2.63
2018-04-11T17:15:16.618Z,3.07
2018-04-11T17:17:44.117Z,2.63
2018-04-11T17:20:11.642Z,2.80
2018-04-11T17:22:57.361Z,4.00
2018-04-11T17:25:44.606Z,2.67
2018-04-11T17:28:26.070Z,3.53
2018-04-11T17:31:04.304Z,2.60
2018-04-11T17:33:34.048Z,2.43
2018-04-11T17:36:06.802Z,3.27
2018-04-11T17:38:39.670Z,3.43
2018-04-11T17:41:07.362Z,2.90
2018-04-11T17:43:46.086Z,3.40
2018-04-11T17:46:13.585Z,4.13
2018-04-11T17:48:48.200Z,2.83
2018-04-11T17:51:16.312Z,4.97
2018-04-11T17:53:46.784Z,3.30
2018-04-11T17:56:15.769Z,2.90
2018-04-11T17:58:46.802Z,22.63
2018-04-11T18:01:14.745Z,6.30
2018-04-11T18:03:45.235Z,5.70
2018-04-11T18:06:13.164Z,5.03
2018-04-11T18:08:47.332Z,6.03
2018-04-11T18:11:14.799Z,4.30
2018-04-11T18:13:42.340Z,4.17
2018-04-11T18:16:10.108Z,4.20
2018-04-11T18:18:37.799Z,4.10
2018-04-11T18:21:05.271Z,5.33
2018-04-11T18:23:32.776Z,10.43
2018-04-11T18:26:00.491Z,6.30
2018-04-11T18:28:27.973Z,11.10
2018-04-11T18:30:55.721Z,5.30
2018-04-11T18:33:33.185Z,9.20
2018-04-11T18:36:00.689Z,4.60
2018-04-11T18:38:28.225Z,5.50
2018-04-11T18:40:55.849Z,14.03
2018-04-11T18:43:23.347Z,5.83
2018-04-11T18:45:51.056Z,4.30
2018-04-11T18:48:18.665Z,8.53
2018-04-11T18:50:46.303Z,11.23
2018-04-11T18:53:13.803Z,4.63
2018-04-11T18:55:41.326Z,4.40
2018-04-11T18:58:08.825Z,5.50
2018-04-11T19:00:36.372Z,8.63
2018-04-11T19:03:03.910Z,4.50
2018-04-11T19:05:31.658Z,10.87
2018-04-11T19:07:59.566Z,4.73
2018-04-11T19:10:29.215Z,5.13
2018-04-11T19:12:56.750Z,8.80
2018-04-11T19:15:24.289Z,5.90
2018-04-11T19:17:51.806Z,8.73
2018-04-11T19:20:19.341Z,5.97
2018-04-11T19:22:46.855Z,6.60
2018-04-11T19:25:40.716Z,7.00
2018-04-11T19:28:09.725Z,7.30
2018-04-11T19:30:38.006Z,10.27
2018-04-11T19:33:06.629Z,9.57
2018-04-11T19:35:35.325Z,7.23
2018-04-11T19:38:02.876Z,8.90
2018-04-11T19:40:30.387Z,9.10
2018-04-11T19:42:57.924Z,7.73
2018-04-11T19:45:25.575Z,9.90
2018-04-11T19:47:54.019Z,106.80
2018-04-11T19:50:21.683Z,11.07
2018-04-11T19:52:52.089Z,11.77
2018-04-11T19:55:38.657Z,8.80
2018-04-11T19:58:16.684Z,9.17
2018-04-11T20:00:48.914Z,9.03
2018-04-11T20:03:23.905Z,9.67
2018-04-11T20:06:06.010Z,9.73
2018-04-11T20:11:20.760Z,8.13
2018-04-11T20:16:31.480Z,8.03
2018-04-11T20:19:09.573Z,9.17
2018-04-11T20:21:37.179Z,11.20
2018-04-11T20:24:04.877Z,14.20
2018-04-11T20:26:48.059Z,8.07
2018-04-11T20:29:26.047Z,9.67
2018-04-11T20:31:54.597Z,9.80
2018-04-11T20:34:22.219Z,11.10
2018-04-11T20:36:52.508Z,43.60
2018-04-11T20:39:20.225Z,31.53
2018-04-11T20:41:49.432Z,21.93
2018-04-11T20:44:17.107Z,10.67
2018-04-11T20:46:48.634Z,10.93
2018-04-11T20:49:16.260Z,8.70
2018-04-11T20:51:47.348Z,9.80
2018-04-11T20:54:14.973Z,8.63
2018-04-11T20:56:42.487Z,10.27
2018-04-11T20:59:12.093Z,8.23
2018-04-11T21:01:40.400Z,12.00
2018-04-11T21:04:08.038Z,8.00
2018-04-11T21:06:36.626Z,8.60
2018-04-11T21:09:04.924Z,8.77
2018-04-11T21:11:36.600Z,11.93
2018-04-11T21:14:05.000Z,9.60
2018-04-11T21:16:42.541Z,8.50
2018-04-11T21:19:10.357Z,8.83
2018-04-11T21:21:38.978Z,9.00
2018-04-11T21:26:54.953Z,7.30
2018-04-11T21:29:25.303Z,7.20
2018-04-11T21:32:06.789Z,9.03
2018-04-11T21:34:34.761Z,10.00
2018-04-11T21:37:02.452Z,6.90
2018-04-11T21:39:30.047Z,9.07
2018-04-11T21:41:57.565Z,7.00
2018-04-11T21:44:26.118Z,8.27
2018-04-11T21:46:54.641Z,8.30
2018-04-11T21:49:22.118Z,7.83
2018-04-11T21:51:49.882Z,7.93
2018-04-11T21:54:17.367Z,8.30
2018-04-11T21:56:44.856Z,6.93
2018-04-11T21:59:12.333Z,7.60
2018-04-11T22:01:39.810Z,6.80
2018-04-11T22:04:07.352Z,8.73
2018-04-11T22:06:34.835Z,7.30
2018-04-11T22:09:02.339Z,8.67
2018-04-11T22:11:29.838Z,6.13
2018-04-11T22:13:57.322Z,6.30
2018-04-11T22:16:24.820Z,9.37
2018-04-11T22:18:52.307Z,7.93
2018-04-11T22:21:19.805Z,8.80
2018-04-11T22:23:47.290Z,8.23
2018-04-11T22:26:14.766Z,7.50
2018-04-11T22:28:42.371Z,11.17
2018-04-11T22:31:09.846Z,6.87
2018-04-11T22:33:37.316Z,7.70
2018-04-11T22:36:04.814Z,6.90
2018-04-11T22:38:32.441Z,9.80
2018-04-11T22:40:59.936Z,7.40
2018-04-11T22:43:27.433Z,6.93
2018-04-11T22:45:54.912Z,10.23
2018-04-11T22:48:22.388Z,6.27
2018-04-11T22:50:49.874Z,9.27
2018-04-11T22:53:17.369Z,12.30
2018-04-11T22:55:44.982Z,6.93
2018-04-11T22:58:12.461Z,8.43
2018-04-11T23:00:39.944Z,6.37
2018-04-11T23:03:07.454Z,8.83
2018-04-11T23:05:35.048Z,9.23
2018-04-11T23:08:02.539Z,9.77
2018-04-11T23:10:30.211Z,6.60
2018-04-11T23:12:57.724Z,11.10
2018-04-11T23:15:25.209Z,10.33
2018-04-11T23:17:52.689Z,7.57
2018-04-11T23:20:20.213Z,7.43
2018-04-11T23:22:47.681Z,9.03
2018-04-11T23:25:15.177Z,8.87
2018-04-11T23:27:42.670Z,9.10
2018-04-11T23:30:10.148Z,7.77
2018-04-11T23:32:37.649Z,6.10
2018-04-11T23:35:05.145Z,24.60
2018-04-11T23:37:32.649Z,12.17
2018-04-11T23:40:00.161Z,8.63
2018-04-11T23:42:27.637Z,7.90
2018-04-11T23:44:55.170Z,7.50
2018-04-11T23:47:22.645Z,8.77
2018-04-11T23:49:50.327Z,7.77
2018-04-11T23:52:17.868Z,6.60
2018-04-11T23:54:45.376Z,7.30
2018-04-11T23:57:12.861Z,7.73
2018-04-11T23:59:40.350Z,8.10
